RYR12MA ENGM-EPKT
Flight info
| Callsign | RYR12MA |
|---|---|
| Flight time | 1h 51m |
| Altitude | 37000 |
| Route | OKSA2C OKSAT L996 KELIN DCT NEXIL DCT ROE DCT GOSOT DCT BABEN DCT XIDNA DCT VAGON T710 NUDRO DCT MOFKE MOFK2D |
| Aircraft | B738/M-SDE2E3FGHIRWXY/LB1 |
Departure
| Time | 2026-05-07 14:37 |
|---|---|
| Airport | Oslo-Gardermoen International Airport (ENGM) |
Arrival
| Time | 2026-05-07 16:29 |
|---|---|
| Airport | Katowice Wojciech Korfanty International Airport (EPKT) |
| Time | Latitude | Longitude | Altitude | Speed | Heading |
|---|---|---|---|---|---|
| 2026-05-07 14:18 | 60.19521 | 11.10152 | 684 ft | 0 kts | 264° |
| 2026-05-07 14:28 | 60.19521 | 11.10168 | 677 ft | 2 kts | 262° |
| 2026-05-07 14:28 | 60.19524 | 11.10201 | 677 ft | 2 kts | 261° |
| 2026-05-07 14:29 | 60.19526 | 11.10233 | 678 ft | 2 kts | 258° |
| 2026-05-07 14:29 | 60.19530 | 11.10266 | 680 ft | 2 kts | 254° |
| 2026-05-07 14:29 | 60.19535 | 11.10297 | 676 ft | 2 kts | 249° |
| 2026-05-07 14:29 | 60.19542 | 11.10328 | 678 ft | 2 kts | 242° |
| 2026-05-07 14:30 | 60.19550 | 11.10356 | 679 ft | 2 kts | 231° |
| 2026-05-07 14:30 | 60.19562 | 11.10380 | 677 ft | 2 kts | 216° |
| 2026-05-07 14:30 | 60.19576 | 11.10397 | 682 ft | 2 kts | 199° |
| 2026-05-07 14:30 | 60.19590 | 11.10405 | 681 ft | 1 kts | 192° |
| 2026-05-07 14:31 | 60.19593 | 11.10406 | 681 ft | 0 kts | 193° |
| 2026-05-07 14:32 | 60.19591 | 11.10404 | 681 ft | 1 kts | 195° |
| 2026-05-07 14:32 | 60.19574 | 11.10395 | 682 ft | 4 kts | 194° |
| 2026-05-07 14:32 | 60.19541 | 11.10418 | 679 ft | 7 kts | 135° |
| 2026-05-07 14:33 | 60.19520 | 11.10530 | 680 ft | 10 kts | 107° |
| 2026-05-07 14:33 | 60.19498 | 11.10682 | 682 ft | 12 kts | 106° |
| 2026-05-07 14:33 | 60.19472 | 11.10862 | 682 ft | 14 kts | 105° |
| 2026-05-07 14:33 | 60.19442 | 11.11069 | 682 ft | 16 kts | 106° |
| 2026-05-07 14:34 | 60.19410 | 11.11292 | 682 ft | 17 kts | 106° |
| 2026-05-07 14:34 | 60.19446 | 11.11466 | 681 ft | 16 kts | 17° |
| 2026-05-07 14:34 | 60.19553 | 11.11527 | 682 ft | 16 kts | 16° |
| 2026-05-07 14:34 | 60.19663 | 11.11590 | 683 ft | 16 kts | 16° |
| 2026-05-07 14:35 | 60.19776 | 11.11656 | 684 ft | 17 kts | 16° |
| 2026-05-07 14:35 | 60.19885 | 11.11719 | 685 ft | 16 kts | 16° |
| 2026-05-07 14:35 | 60.19991 | 11.11781 | 684 ft | 16 kts | 16° |
| 2026-05-07 14:35 | 60.20064 | 11.11871 | 682 ft | 11 kts | 76° |
| 2026-05-07 14:36 | 60.20049 | 11.12017 | 685 ft | 11 kts | 108° |
| 2026-05-07 14:36 | 60.20008 | 11.12140 | 685 ft | 11 kts | 144° |
| 2026-05-07 14:36 | 60.19926 | 11.12135 | 687 ft | 14 kts | 197° |
| 2026-05-07 14:36 | 60.19648 | 11.11973 | 684 ft | 81 kts | 196° |
| 2026-05-07 14:37 | 60.18870 | 11.11528 | 684 ft | 151 kts | 196° |
| 2026-05-07 14:37 | 60.16555 | 11.10289 | 2201 ft | 176 kts | 195° |
| 2026-05-07 14:37 | 60.15322 | 11.09596 | 2842 ft | 199 kts | 197° |
| 2026-05-07 14:38 | 60.13888 | 11.08994 | 3038 ft | 225 kts | 178° |
| 2026-05-07 14:38 | 60.12386 | 11.10204 | 3341 ft | 250 kts | 140° |
| 2026-05-07 14:38 | 60.11151 | 11.12804 | 3835 ft | 264 kts | 133° |
| 2026-05-07 14:38 | 60.09913 | 11.15506 | 4723 ft | 265 kts | 133° |
| 2026-05-07 14:39 | 60.08650 | 11.18216 | 5625 ft | 267 kts | 134° |
| 2026-05-07 14:39 | 60.07359 | 11.20958 | 6470 ft | 272 kts | 134° |
| 2026-05-07 14:39 | 60.06049 | 11.23737 | 7274 ft | 276 kts | 133° |
| 2026-05-07 14:39 | 60.04842 | 11.26771 | 8028 ft | 281 kts | 126° |
| 2026-05-07 14:40 | 60.03715 | 11.30036 | 8777 ft | 287 kts | 125° |
| 2026-05-07 14:40 | 60.02584 | 11.33314 | 9548 ft | 292 kts | 126° |
| 2026-05-07 14:40 | 60.01411 | 11.36666 | 10259 ft | 297 kts | 126° |
| 2026-05-07 14:40 | 60.00018 | 11.39861 | 10555 ft | 316 kts | 141° |
| 2026-05-07 14:41 | 59.98216 | 11.42672 | 10756 ft | 338 kts | 145° |
| 2026-05-07 14:41 | 59.96283 | 11.45517 | 11239 ft | 349 kts | 146° |
| 2026-05-07 14:41 | 59.94305 | 11.48408 | 11920 ft | 354 kts | 146° |
| 2026-05-07 14:41 | 59.92336 | 11.51306 | 12643 ft | 358 kts | 146° |
| 2026-05-07 14:42 | 59.90325 | 11.54295 | 13372 ft | 362 kts | 146° |
| 2026-05-07 14:42 | 59.88297 | 11.57325 | 14048 ft | 366 kts | 146° |
| 2026-05-07 14:42 | 59.86244 | 11.60404 | 14650 ft | 371 kts | 146° |
| 2026-05-07 14:42 | 59.84167 | 11.63524 | 15245 ft | 376 kts | 146° |
| 2026-05-07 14:43 | 59.82065 | 11.66678 | 15828 ft | 380 kts | 146° |
| 2026-05-07 14:43 | 59.79966 | 11.69825 | 16407 ft | 385 kts | 146° |
| 2026-05-07 14:43 | 59.77810 | 11.73054 | 16974 ft | 390 kts | 146° |
| 2026-05-07 14:43 | 59.75624 | 11.76321 | 17558 ft | 394 kts | 147° |
| 2026-05-07 14:44 | 59.73413 | 11.79621 | 18154 ft | 399 kts | 147° |
| 2026-05-07 14:44 | 59.71208 | 11.82906 | 18699 ft | 403 kts | 147° |
| 2026-05-07 14:44 | 59.68949 | 11.86269 | 19162 ft | 408 kts | 147° |
| 2026-05-07 14:44 | 59.66660 | 11.89671 | 19670 ft | 412 kts | 147° |
| 2026-05-07 14:45 | 59.64361 | 11.93079 | 20310 ft | 411 kts | 147° |
| 2026-05-07 14:45 | 59.61964 | 11.96160 | 20752 ft | 411 kts | 159° |
| 2026-05-07 14:45 | 59.59277 | 11.97986 | 21190 ft | 406 kts | 174° |
| 2026-05-07 14:45 | 59.56488 | 11.98527 | 21659 ft | 401 kts | 188° |
| 2026-05-07 14:46 | 59.53702 | 11.98223 | 22192 ft | 402 kts | 189° |
| 2026-05-07 14:46 | 59.50898 | 11.97830 | 22621 ft | 406 kts | 190° |
| 2026-05-07 14:46 | 59.48094 | 11.97441 | 23062 ft | 409 kts | 190° |
| 2026-05-07 14:46 | 59.45239 | 11.97077 | 23548 ft | 412 kts | 189° |
| 2026-05-07 14:47 | 59.42350 | 11.96737 | 23948 ft | 415 kts | 189° |
| 2026-05-07 14:47 | 59.39450 | 11.96414 | 24338 ft | 418 kts | 189° |
| 2026-05-07 14:47 | 59.36533 | 11.96095 | 24708 ft | 420 kts | 189° |
| 2026-05-07 14:47 | 59.33640 | 11.95778 | 25086 ft | 422 kts | 189° |
| 2026-05-07 14:48 | 59.30692 | 11.95458 | 25438 ft | 425 kts | 189° |
| 2026-05-07 14:48 | 59.27718 | 11.95140 | 25793 ft | 427 kts | 189° |
| 2026-05-07 14:48 | 59.24745 | 11.94825 | 26144 ft | 430 kts | 189° |
| 2026-05-07 14:48 | 59.21743 | 11.94507 | 26480 ft | 432 kts | 189° |
| 2026-05-07 14:49 | 59.18727 | 11.94189 | 26822 ft | 434 kts | 189° |
| 2026-05-07 14:49 | 59.15701 | 11.93871 | 27157 ft | 436 kts | 189° |
| 2026-05-07 14:49 | 59.12697 | 11.93554 | 27486 ft | 438 kts | 189° |
| 2026-05-07 14:49 | 59.09642 | 11.93232 | 27782 ft | 441 kts | 189° |
| 2026-05-07 14:50 | 59.06557 | 11.92907 | 28096 ft | 443 kts | 189° |
| 2026-05-07 14:50 | 59.03467 | 11.92583 | 28385 ft | 446 kts | 189° |
| 2026-05-07 14:50 | 59.00385 | 11.92249 | 28682 ft | 448 kts | 189° |
| 2026-05-07 14:50 | 58.97260 | 11.91899 | 28998 ft | 449 kts | 189° |
| 2026-05-07 14:51 | 58.94122 | 11.91545 | 29298 ft | 451 kts | 189° |
| 2026-05-07 14:51 | 58.90974 | 11.91192 | 29579 ft | 453 kts | 189° |
| 2026-05-07 14:51 | 58.87815 | 11.90840 | 29846 ft | 455 kts | 189° |
| 2026-05-07 14:51 | 58.84642 | 11.90489 | 30100 ft | 457 kts | 189° |
| 2026-05-07 14:52 | 58.81497 | 11.90202 | 30350 ft | 460 kts | 186° |
| 2026-05-07 14:52 | 58.78272 | 11.90631 | 30636 ft | 467 kts | 178° |
| 2026-05-07 14:52 | 58.75057 | 11.91547 | 31004 ft | 466 kts | 176° |
| 2026-05-07 14:52 | 58.71859 | 11.92511 | 31321 ft | 465 kts | 176° |
| 2026-05-07 14:53 | 58.68655 | 11.93457 | 31592 ft | 465 kts | 177° |
| 2026-05-07 14:53 | 58.65449 | 11.94364 | 31854 ft | 465 kts | 177° |
| 2026-05-07 14:53 | 58.62244 | 11.95240 | 32149 ft | 464 kts | 177° |
| 2026-05-07 14:53 | 58.59039 | 11.96104 | 32465 ft | 463 kts | 177° |
| 2026-05-07 14:54 | 58.55885 | 11.96952 | 32752 ft | 463 kts | 177° |
| 2026-05-07 14:54 | 58.52698 | 11.97809 | 33016 ft | 463 kts | 177° |
| 2026-05-07 14:54 | 58.49497 | 11.98672 | 33284 ft | 463 kts | 177° |
| 2026-05-07 14:54 | 58.46309 | 11.99532 | 33550 ft | 462 kts | 177° |
| 2026-05-07 14:55 | 58.43114 | 12.00393 | 33822 ft | 462 kts | 177° |
| 2026-05-07 14:55 | 58.39929 | 12.01250 | 34086 ft | 461 kts | 177° |
| 2026-05-07 14:55 | 58.36786 | 12.02093 | 34300 ft | 461 kts | 176° |
| 2026-05-07 14:55 | 58.33606 | 12.02945 | 34550 ft | 459 kts | 176° |
| 2026-05-07 14:56 | 58.30428 | 12.03794 | 34782 ft | 459 kts | 176° |
| 2026-05-07 14:56 | 58.27308 | 12.04628 | 35000 ft | 458 kts | 176° |
| 2026-05-07 14:56 | 58.24168 | 12.05922 | 35202 ft | 462 kts | 167° |
| 2026-05-07 14:56 | 58.21159 | 12.08132 | 35422 ft | 466 kts | 158° |
| 2026-05-07 14:57 | 58.18242 | 12.10849 | 35656 ft | 465 kts | 157° |
| 2026-05-07 14:57 | 58.15345 | 12.13612 | 35865 ft | 465 kts | 156° |
| 2026-05-07 14:57 | 58.12487 | 12.16344 | 36082 ft | 464 kts | 157° |
| 2026-05-07 14:57 | 58.09598 | 12.19085 | 36307 ft | 462 kts | 157° |
| 2026-05-07 14:58 | 58.06713 | 12.21793 | 36554 ft | 461 kts | 157° |
| 2026-05-07 14:58 | 58.03871 | 12.24437 | 36767 ft | 460 kts | 157° |
| 2026-05-07 14:58 | 58.00995 | 12.27095 | 36941 ft | 459 kts | 158° |
| 2026-05-07 14:58 | 57.98115 | 12.29744 | 37066 ft | 460 kts | 158° |
| 2026-05-07 14:59 | 57.92365 | 12.35010 | 37078 ft | 461 kts | 158° |
| 2026-05-07 14:59 | 57.86595 | 12.40280 | 37073 ft | 458 kts | 157° |
| 2026-05-07 15:00 | 57.80914 | 12.45453 | 37077 ft | 455 kts | 157° |
| 2026-05-07 15:00 | 57.76168 | 12.49760 | 37074 ft | 453 kts | 157° |
| 2026-05-07 15:01 | 57.70489 | 12.54897 | 37073 ft | 452 kts | 157° |
| 2026-05-07 15:01 | 57.64965 | 12.59876 | 37082 ft | 452 kts | 157° |
| 2026-05-07 15:02 | 57.59313 | 12.64953 | 37092 ft | 453 kts | 157° |
| 2026-05-07 15:02 | 57.53606 | 12.70061 | 37083 ft | 455 kts | 157° |
| 2026-05-07 15:03 | 57.47870 | 12.75178 | 37081 ft | 457 kts | 157° |
| 2026-05-07 15:03 | 57.42148 | 12.80266 | 37085 ft | 459 kts | 157° |
| 2026-05-07 15:04 | 57.36363 | 12.85391 | 37084 ft | 460 kts | 157° |
| 2026-05-07 15:04 | 57.30595 | 12.90484 | 37080 ft | 462 kts | 157° |
| 2026-05-07 15:05 | 57.24778 | 12.95601 | 37080 ft | 462 kts | 157° |
| 2026-05-07 15:05 | 57.18995 | 13.00672 | 37078 ft | 461 kts | 157° |
| 2026-05-07 15:06 | 57.13194 | 13.05740 | 37076 ft | 460 kts | 157° |
| 2026-05-07 15:06 | 57.07403 | 13.10783 | 37076 ft | 459 kts | 157° |
| 2026-05-07 15:07 | 57.01633 | 13.15789 | 37077 ft | 457 kts | 157° |
| 2026-05-07 15:07 | 56.95921 | 13.20727 | 37082 ft | 455 kts | 157° |
| 2026-05-07 15:08 | 56.90176 | 13.25678 | 37087 ft | 454 kts | 157° |
| 2026-05-07 15:08 | 56.84505 | 13.30548 | 37087 ft | 452 kts | 157° |
| 2026-05-07 15:09 | 56.78806 | 13.35426 | 37090 ft | 451 kts | 157° |
| 2026-05-07 15:09 | 56.73146 | 13.40253 | 37092 ft | 450 kts | 157° |
| 2026-05-07 15:10 | 56.67467 | 13.45080 | 37081 ft | 450 kts | 157° |
| 2026-05-07 15:10 | 56.61788 | 13.49893 | 37081 ft | 449 kts | 157° |
| 2026-05-07 15:11 | 56.56110 | 13.54689 | 37086 ft | 449 kts | 157° |
| 2026-05-07 15:11 | 56.50463 | 13.59441 | 37087 ft | 450 kts | 157° |
| 2026-05-07 15:12 | 56.44778 | 13.64212 | 37082 ft | 450 kts | 157° |
| 2026-05-07 15:12 | 56.39082 | 13.68977 | 37083 ft | 451 kts | 157° |
| 2026-05-07 15:13 | 56.33416 | 13.73701 | 37077 ft | 451 kts | 157° |
| 2026-05-07 15:13 | 56.27710 | 13.78450 | 37077 ft | 451 kts | 157° |
| 2026-05-07 15:14 | 56.22003 | 13.83193 | 37076 ft | 450 kts | 157° |
| 2026-05-07 15:14 | 56.16338 | 13.87888 | 37075 ft | 450 kts | 157° |
| 2026-05-07 15:15 | 56.10637 | 13.92596 | 37075 ft | 450 kts | 157° |
| 2026-05-07 15:15 | 56.04976 | 13.97256 | 37075 ft | 449 kts | 157° |
| 2026-05-07 15:16 | 55.99289 | 14.01921 | 37073 ft | 448 kts | 157° |
| 2026-05-07 15:16 | 55.93647 | 14.06535 | 37075 ft | 447 kts | 157° |
| 2026-05-07 15:17 | 55.87983 | 14.11153 | 37075 ft | 446 kts | 157° |
| 2026-05-07 15:17 | 55.82361 | 14.15721 | 37077 ft | 445 kts | 157° |
| 2026-05-07 15:18 | 55.76716 | 14.20293 | 37081 ft | 445 kts | 157° |
| 2026-05-07 15:18 | 55.71081 | 14.24842 | 37087 ft | 444 kts | 158° |
| 2026-05-07 15:19 | 55.65453 | 14.29372 | 37092 ft | 443 kts | 158° |
| 2026-05-07 15:19 | 55.59861 | 14.33858 | 37102 ft | 443 kts | 158° |
| 2026-05-07 15:20 | 55.54243 | 14.38351 | 37104 ft | 442 kts | 158° |
| 2026-05-07 15:20 | 55.48653 | 14.42807 | 37107 ft | 442 kts | 158° |
| 2026-05-07 15:21 | 55.43033 | 14.47274 | 37107 ft | 443 kts | 158° |
| 2026-05-07 15:21 | 55.37400 | 14.51736 | 37106 ft | 443 kts | 158° |
| 2026-05-07 15:22 | 55.31805 | 14.56155 | 37113 ft | 443 kts | 158° |
| 2026-05-07 15:22 | 55.26153 | 14.60606 | 37105 ft | 443 kts | 158° |
| 2026-05-07 15:23 | 55.20560 | 14.64996 | 37105 ft | 443 kts | 158° |
| 2026-05-07 15:23 | 55.14924 | 14.69408 | 37099 ft | 443 kts | 158° |
| 2026-05-07 15:24 | 55.09299 | 14.73797 | 37112 ft | 442 kts | 158° |
| 2026-05-07 15:24 | 55.03539 | 14.77263 | 37107 ft | 438 kts | 169° |
| 2026-05-07 15:25 | 54.97573 | 14.79428 | 37102 ft | 437 kts | 170° |
| 2026-05-07 15:25 | 54.91617 | 14.81617 | 37101 ft | 437 kts | 170° |
| 2026-05-07 15:26 | 54.85713 | 14.83859 | 37108 ft | 436 kts | 169° |
| 2026-05-07 15:26 | 54.79826 | 14.86544 | 37102 ft | 438 kts | 160° |
| 2026-05-07 15:27 | 54.74409 | 14.91361 | 37100 ft | 439 kts | 154° |
| 2026-05-07 15:27 | 54.69037 | 14.96451 | 37102 ft | 439 kts | 154° |
| 2026-05-07 15:28 | 54.63695 | 15.01430 | 37102 ft | 438 kts | 154° |
| 2026-05-07 15:28 | 54.58329 | 15.06368 | 37104 ft | 438 kts | 154° |
| 2026-05-07 15:29 | 54.52940 | 15.11305 | 37103 ft | 438 kts | 154° |
| 2026-05-07 15:29 | 54.47555 | 15.16226 | 37100 ft | 438 kts | 155° |
| 2026-05-07 15:30 | 54.42166 | 15.21138 | 37101 ft | 438 kts | 155° |
| 2026-05-07 15:30 | 54.36723 | 15.25792 | 37100 ft | 435 kts | 160° |
| 2026-05-07 15:31 | 54.31137 | 15.29687 | 37091 ft | 435 kts | 161° |
| 2026-05-07 15:31 | 54.25535 | 15.33488 | 37095 ft | 435 kts | 161° |
| 2026-05-07 15:32 | 54.19910 | 15.37339 | 37091 ft | 435 kts | 161° |
| 2026-05-07 15:32 | 54.14298 | 15.41204 | 37094 ft | 435 kts | 161° |
| 2026-05-07 15:33 | 54.08683 | 15.45073 | 37089 ft | 435 kts | 161° |
| 2026-05-07 15:33 | 54.03100 | 15.48911 | 37083 ft | 435 kts | 161° |
| 2026-05-07 15:34 | 53.97473 | 15.52766 | 37080 ft | 434 kts | 161° |
| 2026-05-07 15:34 | 53.91895 | 15.56577 | 37078 ft | 434 kts | 161° |
| 2026-05-07 15:35 | 53.86285 | 15.60398 | 37071 ft | 433 kts | 161° |
| 2026-05-07 15:35 | 53.80708 | 15.64186 | 37069 ft | 433 kts | 161° |
| 2026-05-07 15:36 | 53.75122 | 15.67969 | 37066 ft | 432 kts | 161° |
| 2026-05-07 15:36 | 53.69541 | 15.71737 | 37061 ft | 431 kts | 161° |
| 2026-05-07 15:37 | 53.63997 | 15.75470 | 37058 ft | 430 kts | 161° |
| 2026-05-07 15:37 | 53.58442 | 15.79199 | 37059 ft | 429 kts | 161° |
| 2026-05-07 15:38 | 53.52897 | 15.82912 | 37050 ft | 428 kts | 161° |
| 2026-05-07 15:38 | 53.47350 | 15.86615 | 37052 ft | 427 kts | 161° |
| 2026-05-07 15:39 | 53.41863 | 15.90268 | 37051 ft | 427 kts | 161° |
| 2026-05-07 15:39 | 53.36326 | 15.93944 | 37047 ft | 427 kts | 161° |
| 2026-05-07 15:40 | 53.30825 | 15.97585 | 37046 ft | 427 kts | 161° |
| 2026-05-07 15:40 | 53.25295 | 16.01236 | 37042 ft | 427 kts | 161° |
| 2026-05-07 15:41 | 53.19755 | 16.04884 | 37039 ft | 427 kts | 161° |
| 2026-05-07 15:41 | 53.14254 | 16.08495 | 37043 ft | 427 kts | 161° |
| 2026-05-07 15:42 | 53.08717 | 16.12120 | 37041 ft | 427 kts | 161° |
| 2026-05-07 15:42 | 53.03200 | 16.15722 | 37032 ft | 427 kts | 161° |
| 2026-05-07 15:43 | 52.97656 | 16.19333 | 37035 ft | 427 kts | 161° |
| 2026-05-07 15:43 | 52.92103 | 16.22938 | 37040 ft | 428 kts | 161° |
| 2026-05-07 15:44 | 52.86591 | 16.26507 | 37028 ft | 428 kts | 161° |
| 2026-05-07 15:44 | 52.81044 | 16.30089 | 37038 ft | 427 kts | 161° |
| 2026-05-07 15:45 | 52.75480 | 16.33672 | 37032 ft | 427 kts | 161° |
| 2026-05-07 15:45 | 52.69952 | 16.37223 | 37033 ft | 427 kts | 162° |
| 2026-05-07 15:46 | 52.61667 | 16.42526 | 37031 ft | 426 kts | 162° |
| 2026-05-07 15:47 | 52.56125 | 16.46061 | 37036 ft | 426 kts | 162° |
| 2026-05-07 15:47 | 52.50619 | 16.49563 | 37038 ft | 426 kts | 162° |
| 2026-05-07 15:48 | 52.45086 | 16.53074 | 37042 ft | 425 kts | 162° |
| 2026-05-07 15:48 | 52.39588 | 16.56553 | 37043 ft | 425 kts | 162° |
| 2026-05-07 15:49 | 52.34956 | 16.59476 | 37042 ft | 425 kts | 162° |
| 2026-05-07 15:49 | 52.28560 | 16.63502 | 37045 ft | 425 kts | 162° |
| 2026-05-07 15:50 | 52.23963 | 16.66388 | 37036 ft | 425 kts | 162° |
| 2026-05-07 15:50 | 52.18434 | 16.69851 | 37035 ft | 424 kts | 162° |
| 2026-05-07 15:51 | 52.12943 | 16.73281 | 37026 ft | 424 kts | 162° |
| 2026-05-07 15:51 | 52.07435 | 16.76712 | 37019 ft | 423 kts | 162° |
| 2026-05-07 15:52 | 52.01923 | 16.80137 | 37015 ft | 423 kts | 162° |
| 2026-05-07 15:52 | 51.96449 | 16.83530 | 37015 ft | 423 kts | 162° |
| 2026-05-07 15:53 | 51.90939 | 16.86936 | 37016 ft | 422 kts | 162° |
| 2026-05-07 15:53 | 51.85439 | 16.90326 | 37007 ft | 422 kts | 162° |
| 2026-05-07 15:54 | 51.79974 | 16.93687 | 37015 ft | 422 kts | 162° |
| 2026-05-07 15:54 | 51.74479 | 16.97059 | 37001 ft | 419 kts | 162° |
| 2026-05-07 15:55 | 51.69043 | 17.00163 | 36995 ft | 408 kts | 171° |
| 2026-05-07 15:55 | 51.63531 | 17.01818 | 36824 ft | 407 kts | 173° |
| 2026-05-07 15:55 | 51.60744 | 17.02607 | 36554 ft | 403 kts | 173° |
| 2026-05-07 15:56 | 51.57998 | 17.03395 | 36162 ft | 398 kts | 173° |
| 2026-05-07 15:56 | 51.55284 | 17.04186 | 35810 ft | 394 kts | 173° |
| 2026-05-07 15:56 | 51.52597 | 17.04976 | 35415 ft | 390 kts | 173° |
| 2026-05-07 15:56 | 51.49938 | 17.05762 | 35040 ft | 387 kts | 173° |
| 2026-05-07 15:57 | 51.47294 | 17.06543 | 34658 ft | 383 kts | 173° |
| 2026-05-07 15:57 | 51.44713 | 17.07306 | 34292 ft | 379 kts | 173° |
| 2026-05-07 15:57 | 51.42130 | 17.08069 | 33915 ft | 376 kts | 173° |
| 2026-05-07 15:57 | 51.39560 | 17.08826 | 33478 ft | 372 kts | 173° |
| 2026-05-07 15:58 | 51.37024 | 17.09573 | 33115 ft | 367 kts | 173° |
| 2026-05-07 15:58 | 51.34524 | 17.10327 | 32751 ft | 363 kts | 170° |
| 2026-05-07 15:58 | 51.32127 | 17.11630 | 32395 ft | 364 kts | 161° |
| 2026-05-07 15:58 | 51.29902 | 17.13446 | 32070 ft | 362 kts | 155° |
| 2026-05-07 15:59 | 51.27830 | 17.15738 | 31803 ft | 363 kts | 146° |
| 2026-05-07 15:59 | 51.25971 | 17.18456 | 31550 ft | 359 kts | 144° |
| 2026-05-07 15:59 | 51.24189 | 17.21150 | 31277 ft | 353 kts | 144° |
| 2026-05-07 15:59 | 51.22416 | 17.23827 | 31038 ft | 348 kts | 144° |
| 2026-05-07 16:00 | 51.20660 | 17.26453 | 30731 ft | 343 kts | 144° |
| 2026-05-07 16:00 | 51.18916 | 17.29036 | 30393 ft | 340 kts | 145° |
| 2026-05-07 16:00 | 51.17185 | 17.31593 | 30063 ft | 337 kts | 145° |
| 2026-05-07 16:00 | 51.15413 | 17.33999 | 29760 ft | 328 kts | 149° |
| 2026-05-07 16:01 | 51.13640 | 17.36180 | 29443 ft | 323 kts | 150° |
| 2026-05-07 16:01 | 51.11861 | 17.38323 | 29119 ft | 318 kts | 150° |
| 2026-05-07 16:01 | 51.10094 | 17.40441 | 28789 ft | 315 kts | 150° |
| 2026-05-07 16:01 | 51.08365 | 17.42514 | 28437 ft | 312 kts | 150° |
| 2026-05-07 16:02 | 51.06636 | 17.44590 | 28108 ft | 312 kts | 150° |
| 2026-05-07 16:02 | 51.04887 | 17.46688 | 27765 ft | 320 kts | 150° |
| 2026-05-07 16:02 | 51.03072 | 17.48861 | 27418 ft | 330 kts | 150° |
| 2026-05-07 16:02 | 51.01242 | 17.51063 | 27032 ft | 329 kts | 150° |
| 2026-05-07 16:03 | 50.99424 | 17.53257 | 26679 ft | 326 kts | 149° |
| 2026-05-07 16:03 | 50.97651 | 17.55397 | 26326 ft | 323 kts | 150° |
| 2026-05-07 16:03 | 50.95863 | 17.57552 | 25978 ft | 321 kts | 150° |
| 2026-05-07 16:03 | 50.94090 | 17.59685 | 25634 ft | 318 kts | 150° |
| 2026-05-07 16:04 | 50.92331 | 17.61799 | 25297 ft | 316 kts | 150° |
| 2026-05-07 16:04 | 50.90603 | 17.63873 | 24966 ft | 314 kts | 150° |
| 2026-05-07 16:04 | 50.88860 | 17.65963 | 24632 ft | 312 kts | 150° |
| 2026-05-07 16:04 | 50.87134 | 17.68028 | 24303 ft | 310 kts | 149° |
| 2026-05-07 16:05 | 50.85411 | 17.70090 | 23974 ft | 309 kts | 149° |
| 2026-05-07 16:05 | 50.83701 | 17.72133 | 23631 ft | 307 kts | 150° |
| 2026-05-07 16:05 | 50.81998 | 17.74165 | 23274 ft | 306 kts | 149° |
| 2026-05-07 16:05 | 50.80323 | 17.76164 | 22906 ft | 304 kts | 149° |
| 2026-05-07 16:06 | 50.78632 | 17.78179 | 22562 ft | 302 kts | 149° |
| 2026-05-07 16:06 | 50.76956 | 17.80176 | 22239 ft | 300 kts | 149° |
| 2026-05-07 16:06 | 50.75293 | 17.82155 | 21904 ft | 297 kts | 149° |
| 2026-05-07 16:06 | 50.73643 | 17.84116 | 21582 ft | 295 kts | 149° |
| 2026-05-07 16:07 | 50.72008 | 17.86057 | 21270 ft | 293 kts | 149° |
| 2026-05-07 16:07 | 50.70396 | 17.87969 | 20960 ft | 293 kts | 149° |
| 2026-05-07 16:07 | 50.68766 | 17.89901 | 20653 ft | 293 kts | 149° |
| 2026-05-07 16:07 | 50.67125 | 17.91843 | 20345 ft | 299 kts | 148° |
| 2026-05-07 16:08 | 50.65423 | 17.93853 | 20033 ft | 309 kts | 148° |
| 2026-05-07 16:08 | 50.63691 | 17.95901 | 19690 ft | 311 kts | 148° |
| 2026-05-07 16:08 | 50.61982 | 17.97922 | 19346 ft | 310 kts | 148° |
| 2026-05-07 16:08 | 50.60282 | 18.00014 | 19000 ft | 312 kts | 140° |
| 2026-05-07 16:09 | 50.59033 | 18.02864 | 18672 ft | 322 kts | 118° |
| 2026-05-07 16:09 | 50.58497 | 18.06325 | 18336 ft | 330 kts | 99° |
| 2026-05-07 16:09 | 50.58362 | 18.09931 | 17967 ft | 331 kts | 97° |
| 2026-05-07 16:09 | 50.58279 | 18.13551 | 17618 ft | 329 kts | 96° |
| 2026-05-07 16:10 | 50.58200 | 18.17105 | 17287 ft | 328 kts | 96° |
| 2026-05-07 16:10 | 50.58112 | 18.20691 | 16954 ft | 326 kts | 97° |
| 2026-05-07 16:10 | 50.58014 | 18.24248 | 16635 ft | 324 kts | 97° |
| 2026-05-07 16:10 | 50.57910 | 18.27778 | 16317 ft | 322 kts | 97° |
| 2026-05-07 16:11 | 50.57804 | 18.31247 | 16012 ft | 320 kts | 97° |
| 2026-05-07 16:11 | 50.57695 | 18.34740 | 15701 ft | 318 kts | 97° |
| 2026-05-07 16:11 | 50.57584 | 18.38210 | 15397 ft | 316 kts | 97° |
| 2026-05-07 16:11 | 50.57471 | 18.41668 | 15099 ft | 315 kts | 97° |
| 2026-05-07 16:12 | 50.57358 | 18.45073 | 14779 ft | 314 kts | 97° |
| 2026-05-07 16:12 | 50.57232 | 18.48527 | 14426 ft | 315 kts | 97° |
| 2026-05-07 16:12 | 50.57103 | 18.51982 | 14084 ft | 315 kts | 97° |
| 2026-05-07 16:12 | 50.56975 | 18.55390 | 13743 ft | 316 kts | 97° |
| 2026-05-07 16:13 | 50.56845 | 18.58844 | 13353 ft | 316 kts | 97° |
| 2026-05-07 16:13 | 50.56715 | 18.62295 | 12977 ft | 315 kts | 97° |
| 2026-05-07 16:13 | 50.56584 | 18.65734 | 12625 ft | 315 kts | 97° |
| 2026-05-07 16:13 | 50.56452 | 18.69175 | 12271 ft | 314 kts | 97° |
| 2026-05-07 16:14 | 50.56331 | 18.72606 | 12026 ft | 311 kts | 95° |
| 2026-05-07 16:14 | 50.56327 | 18.75918 | 11897 ft | 304 kts | 92° |
| 2026-05-07 16:14 | 50.56372 | 18.79225 | 11648 ft | 301 kts | 91° |
| 2026-05-07 16:14 | 50.56421 | 18.82506 | 11369 ft | 298 kts | 92° |
| 2026-05-07 16:15 | 50.56463 | 18.85759 | 11122 ft | 295 kts | 92° |
| 2026-05-07 16:15 | 50.56497 | 18.88993 | 10831 ft | 294 kts | 92° |
| 2026-05-07 16:15 | 50.56526 | 18.92215 | 10526 ft | 294 kts | 92° |
| 2026-05-07 16:15 | 50.56550 | 18.95387 | 10277 ft | 293 kts | 92° |
| 2026-05-07 16:16 | 50.56574 | 18.98604 | 9996 ft | 292 kts | 92° |
| 2026-05-07 16:16 | 50.56574 | 19.01789 | 9717 ft | 290 kts | 93° |
| 2026-05-07 16:16 | 50.56552 | 19.04961 | 9417 ft | 289 kts | 93° |
| 2026-05-07 16:16 | 50.56527 | 19.08116 | 9119 ft | 287 kts | 93° |
| 2026-05-07 16:17 | 50.56503 | 19.11252 | 8839 ft | 286 kts | 93° |
| 2026-05-07 16:17 | 50.56482 | 19.14375 | 8538 ft | 285 kts | 92° |
| 2026-05-07 16:17 | 50.56463 | 19.17445 | 8251 ft | 283 kts | 92° |
| 2026-05-07 16:17 | 50.56443 | 19.20547 | 7963 ft | 282 kts | 92° |
| 2026-05-07 16:18 | 50.56422 | 19.23635 | 7658 ft | 281 kts | 92° |
| 2026-05-07 16:18 | 50.56402 | 19.26707 | 7398 ft | 280 kts | 92° |
| 2026-05-07 16:18 | 50.56383 | 19.29757 | 7145 ft | 277 kts | 92° |
| 2026-05-07 16:18 | 50.56353 | 19.32767 | 6983 ft | 271 kts | 94° |
| 2026-05-07 16:19 | 50.56338 | 19.35651 | 6904 ft | 263 kts | 91° |
| 2026-05-07 16:19 | 50.56354 | 19.38501 | 6762 ft | 258 kts | 91° |
| 2026-05-07 16:19 | 50.56374 | 19.41306 | 6645 ft | 256 kts | 91° |
| 2026-05-07 16:19 | 50.56397 | 19.44115 | 6532 ft | 257 kts | 91° |
| 2026-05-07 16:20 | 50.56392 | 19.46935 | 6345 ft | 259 kts | 94° |
| 2026-05-07 16:20 | 50.56324 | 19.49763 | 6089 ft | 258 kts | 94° |
| 2026-05-07 16:20 | 50.56248 | 19.52571 | 5837 ft | 257 kts | 93° |
| 2026-05-07 16:20 | 50.56216 | 19.55339 | 5582 ft | 256 kts | 92° |
| 2026-05-07 16:21 | 50.56198 | 19.58123 | 5331 ft | 254 kts | 92° |
| 2026-05-07 16:21 | 50.56013 | 19.60860 | 5084 ft | 249 kts | 113° |
| 2026-05-07 16:21 | 50.55059 | 19.63030 | 5025 ft | 239 kts | 144° |
| 2026-05-07 16:21 | 50.53615 | 19.64208 | 5023 ft | 233 kts | 168° |
| 2026-05-07 16:22 | 50.52008 | 19.64490 | 5024 ft | 232 kts | 181° |
| 2026-05-07 16:22 | 50.50391 | 19.64468 | 5017 ft | 232 kts | 186° |
| 2026-05-07 16:22 | 50.48920 | 19.63698 | 5011 ft | 225 kts | 221° |
| 2026-05-07 16:22 | 50.48114 | 19.61664 | 5014 ft | 223 kts | 257° |
| 2026-05-07 16:23 | 50.47875 | 19.59248 | 5019 ft | 224 kts | 261° |
| 2026-05-07 16:23 | 50.47702 | 19.56804 | 5015 ft | 226 kts | 264° |
| 2026-05-07 16:23 | 50.47626 | 19.54330 | 5008 ft | 226 kts | 266° |
| 2026-05-07 16:23 | 50.47602 | 19.51873 | 4999 ft | 223 kts | 268° |
| 2026-05-07 16:24 | 50.47594 | 19.49441 | 4860 ft | 222 kts | 268° |
| 2026-05-07 16:24 | 50.47590 | 19.47038 | 4663 ft | 218 kts | 268° |
| 2026-05-07 16:24 | 50.47588 | 19.44700 | 4511 ft | 214 kts | 268° |
| 2026-05-07 16:24 | 50.47585 | 19.42382 | 4329 ft | 212 kts | 268° |
| 2026-05-07 16:25 | 50.47582 | 19.40066 | 4135 ft | 211 kts | 268° |
| 2026-05-07 16:25 | 50.47580 | 19.37764 | 4043 ft | 210 kts | 268° |
| 2026-05-07 16:25 | 50.47579 | 19.35461 | 4008 ft | 210 kts | 268° |
| 2026-05-07 16:25 | 50.47578 | 19.33174 | 3901 ft | 210 kts | 268° |
| 2026-05-07 16:26 | 50.47577 | 19.30915 | 3651 ft | 207 kts | 268° |
| 2026-05-07 16:26 | 50.47578 | 19.28665 | 3398 ft | 203 kts | 268° |
| 2026-05-07 16:26 | 50.47578 | 19.26479 | 3132 ft | 197 kts | 268° |
| 2026-05-07 16:26 | 50.47579 | 19.25076 | 2963 ft | 189 kts | 268° |
| 2026-05-07 16:27 | 50.47581 | 19.22426 | 2628 ft | 176 kts | 268° |
| 2026-05-07 16:27 | 50.47582 | 19.20553 | 2438 ft | 165 kts | 268° |
| 2026-05-07 16:27 | 50.47583 | 19.18759 | 2197 ft | 163 kts | 268° |
| 2026-05-07 16:27 | 50.47583 | 19.16993 | 1965 ft | 161 kts | 269° |
| 2026-05-07 16:28 | 50.47582 | 19.15230 | 1725 ft | 161 kts | 270° |
| 2026-05-07 16:28 | 50.47581 | 19.13485 | 1463 ft | 162 kts | 273° |
| 2026-05-07 16:28 | 50.47588 | 19.11693 | 1249 ft | 165 kts | 274° |
| 2026-05-07 16:28 | 50.47593 | 19.09908 | 1026 ft | 162 kts | 273° |
| 2026-05-07 16:29 | 50.47601 | 19.08309 | 996 ft | 120 kts | 270° |
| 2026-05-07 16:29 | 50.47599 | 19.07364 | 1000 ft | 47 kts | 269° |
| 2026-05-07 16:29 | 50.47538 | 19.06991 | 998 ft | 20 kts | 241° |
| 2026-05-07 16:29 | 50.47484 | 19.06843 | 1000 ft | 14 kts | 240° |
| 2026-05-07 16:30 | 50.47449 | 19.06745 | 999 ft | 9 kts | 240° |
| 2026-05-07 16:30 | 50.47414 | 19.06658 | 997 ft | 9 kts | 229° |
| 2026-05-07 16:30 | 50.47358 | 19.06624 | 1000 ft | 9 kts | 179° |
| 2026-05-07 16:30 | 50.47295 | 19.06625 | 999 ft | 9 kts | 180° |
| 2026-05-07 16:31 | 50.47241 | 19.06665 | 998 ft | 9 kts | 120° |
| 2026-05-07 16:31 | 50.47236 | 19.06762 | 1000 ft | 9 kts | 90° |
| 2026-05-07 16:31 | 50.47236 | 19.06868 | 997 ft | 10 kts | 90° |
| 2026-05-07 16:31 | 50.47236 | 19.06979 | 1002 ft | 10 kts | 90° |
| 2026-05-07 16:32 | 50.47235 | 19.07082 | 997 ft | 8 kts | 90° |
| 2026-05-07 16:32 | 50.47233 | 19.07143 | 1002 ft | 2 kts | 112° |
| 2026-05-07 16:32 | 50.47221 | 19.07149 | 1000 ft | 2 kts | 171° |
| 2026-05-07 16:32 | 50.47208 | 19.07149 | 1003 ft | 2 kts | 179° |
| 2026-05-07 16:33 | 50.47196 | 19.07149 | 1000 ft | 2 kts | 180° |
| 2026-05-07 16:33 | 50.47187 | 19.07149 | 1000 ft | 1 kts | 180° |
| 2026-05-07 16:33 | 50.47183 | 19.07149 | 999 ft | 1 kts | 180° |
| 2026-05-07 16:33 | 50.47182 | 19.07149 | 999 ft | 0 kts | 180° |
| 2026-05-07 16:34 | 50.47180 | 19.07149 | 999 ft | 0 kts | 180° |